Time;durP1;ratioP1;P1;durP2;ratioP2;P2;SDS_P1;SDS_P2;PMS_P1;PMS_P2;Temp;Humidity;BMP_temperature;BMP_pressure;BME280_temperature;BME280_humidity;BME280_pressure;Samples;Min_cycle;Max_cycle;Signal;HPM_P1;HPM_P2
2021/10/11 00:00:37;;;;;;;19.67;11.55;;;;;;;1.48;79.93;101538.63;5003846;28;20030;-79
2021/10/11 00:03:03;;;;;;;18.90;10.85;;;;;;;1.49;80.03;101535.19;5003810;28;20033;-80
2021/10/11 00:05:28;;;;;;;19.40;12.40;;;;;;;1.45;79.93;101531.56;5003250;28;20046;-80
2021/10/11 00:07:53;;;;;;;19.88;13.27;;;;;;;1.40;79.94;101546.06;5006458;28;20087;-81
2021/10/11 00:10:19;;;;;;;19.35;11.52;;;;;;;1.31;79.38;101530.94;5002856;28;20436;-80
2021/10/11 00:12:47;;;;;;;16.55;10.98;;;;;;;1.34;80.49;101534.47;5020965;28;20038;-82
2021/10/11 00:15:12;;;;;;;19.73;12.23;;;;;;;1.38;80.69;101531.19;5003043;28;20469;-81
2021/10/11 00:17:37;;;;;;;17.40;11.50;;;;;;;1.39;79.61;101533.88;5005192;28;20073;-82
2021/10/11 00:20:04;;;;;;;20.15;11.57;;;;;;;1.38;79.60;101537.28;5003316;28;20136;-80
2021/10/11 00:22:29;;;;;;;22.02;12.50;;;;;;;1.34;79.88;101542.25;5004750;28;20033;-81
2021/10/11 00:24:54;;;;;;;18.67;10.95;;;;;;;1.24;80.31;101541.84;5010038;28;20037;-81
2021/10/11 00:27:20;;;;;;;22.65;13.32;;;;;;;1.19;80.27;101539.84;5010601;28;20038;-82
2021/10/11 00:29:45;;;;;;;20.52;12.10;;;;;;;1.20;80.78;101526.00;5011544;28;20063;-81
2021/10/11 00:32:10;;;;;;;19.92;11.63;;;;;;;1.29;80.15;101532.56;5009987;28;20400;-81
2021/10/11 00:34:36;;;;;;;21.70;12.77;;;;;;;1.36;80.57;101531.13;5011349;28;20407;-81
2021/10/11 00:37:02;;;;;;;19.83;12.07;;;;;;;1.39;80.33;101522.56;5024181;28;20588;-81
2021/10/11 00:39:28;;;;;;;21.88;12.55;;;;;;;1.35;80.14;101510.25;5012420;28;20115;-81
2021/10/11 00:41:53;;;;;;;23.40;13.32;;;;;;;1.30;80.60;101510.91;5008183;28;20162;-81
2021/10/11 00:44:18;;;;;;;20.70;12.32;;;;;;;1.26;81.45;101506.41;5026716;28;20038;-80
2021/10/11 00:46:43;;;;;;;20.75;11.65;;;;;;;1.23;80.85;101503.66;5009589;28;20038;-81
2021/10/11 00:49:09;;;;;;;20.05;12.10;;;;;;;1.24;80.75;101508.03;5013861;28;20045;-82
2021/10/11 00:51:34;;;;;;;20.48;11.80;;;;;;;1.25;80.72;101498.53;5029147;28;20046;-81
2021/10/11 00:54:00;;;;;;;19.67;12.27;;;;;;;1.23;80.29;101495.88;5009693;28;20045;-82
2021/10/11 00:56:26;;;;;;;19.10;12.00;;;;;;;1.18;80.67;101497.34;5014417;28;20064;-80
2021/10/11 00:58:51;;;;;;;17.60;11.07;;;;;;;1.13;80.94;101488.44;5014578;28;20112;-80
2021/10/11 01:01:17;;;;;;;22.15;12.13;;;;;;;1.14;81.32;101489.34;5024801;28;20034;-82
2021/10/11 01:03:43;;;;;;;20.60;11.73;;;;;;;1.14;81.70;101490.22;5011157;28;20041;-82
2021/10/11 01:06:09;;;;;;;19.77;12.80;;;;;;;1.08;81.66;101489.94;5008787;28;20210;-81
2021/10/11 01:08:34;;;;;;;20.63;12.10;;;;;;;1.03;81.83;101496.63;5012060;28;20068;-81
2021/10/11 01:11:00;;;;;;;20.73;11.52;;;;;;;1.07;82.28;101495.94;5008289;28;20098;-83
2021/10/11 01:13:25;;;;;;;22.42;12.65;;;;;;;1.12;82.01;101486.66;5014490;28;20073;-81
2021/10/11 01:15:50;;;;;;;17.13;11.00;;;;;;;1.16;82.38;101493.78;5009104;28;20381;-81
2021/10/11 01:18:16;;;;;;;19.98;12.48;;;;;;;1.20;82.49;101487.00;5011519;28;20045;-81
2021/10/11 01:20:41;;;;;;;21.35;12.63;;;;;;;1.25;82.37;101482.91;5010291;28;20068;-80
2021/10/11 01:23:07;;;;;;;19.98;12.10;;;;;;;1.27;82.03;101484.78;5012088;28;20034;-82
2021/10/11 01:25:32;;;;;;;19.77;13.10;;;;;;;1.28;82.08;101483.97;5017324;28;20061;-82
2021/10/11 01:27:57;;;;;;;18.40;12.00;;;;;;;1.31;81.89;101483.22;5011852;28;20045;-82
2021/10/11 01:30:23;;;;;;;19.80;13.02;;;;;;;1.33;81.47;101485.88;5027635;28;20516;-81
2021/10/11 01:32:48;;;;;;;20.00;11.98;;;;;;;1.35;81.17;101479.03;5014356;28;20040;-82
2021/10/11 01:35:15;;;;;;;17.92;11.57;;;;;;;1.30;81.15;101482.31;5009535;28;20050;-81
2021/10/11 01:37:42;;;;;;;17.40;11.38;;;;;;;1.25;81.05;101488.13;5012754;28;20038;-82
2021/10/11 01:40:08;;;;;;;24.45;12.30;;;;;;;1.23;81.23;101485.47;5021554;28;20049;-83
2021/10/11 01:42:34;;;;;;;18.55;11.38;;;;;;;1.22;81.26;101482.78;5008961;28;20117;-83
2021/10/11 01:45:00;;;;;;;23.65;12.90;;;;;;;1.22;80.98;101473.25;5012024;28;20080;-81
2021/10/11 01:47:26;;;;;;;21.90;12.63;;;;;;;1.24;81.53;101475.94;5025607;28;20528;-81
2021/10/11 01:49:52;;;;;;;18.60;11.85;;;;;;;1.26;80.96;101477.81;5014308;28;20041;-82
2021/10/11 01:52:18;;;;;;;19.38;11.73;;;;;;;1.27;81.23;101476.97;5012478;28;20080;-81
2021/10/11 01:54:43;;;;;;;20.48;11.95;;;;;;;1.22;79.83;101472.38;5010920;28;20042;-81
2021/10/11 01:57:09;;;;;;;19.30;12.07;;;;;;;1.17;80.62;101477.34;5007579;28;20041;-81
2021/10/11 01:59:34;;;;;;;20.10;12.77;;;;;;;1.14;80.79;101461.63;5013190;28;20033;-81
2021/10/11 02:01:59;;;;;;;19.05;12.52;;;;;;;1.14;81.39;101477.22;5011227;28;20037;-81
2021/10/11 02:04:25;;;;;;;18.27;11.13;;;;;;;1.16;80.93;101467.78;5012547;28;20121;-83
2021/10/11 02:06:50;;;;;;;18.88;11.93;;;;;;;1.14;80.67;101463.34;5015677;28;20060;-83
2021/10/11 02:09:16;;;;;;;20.10;13.35;;;;;;;1.14;81.17;101460.72;5008525;28;20041;-83
2021/10/11 02:11:41;;;;;;;19.00;12.32;;;;;;;1.13;81.43;101469.34;5012856;28;20492;-83
2021/10/11 02:14:07;;;;;;;22.57;12.23;;;;;;;1.12;81.33;101455.44;5015609;28;20049;-82
2021/10/11 02:16:32;;;;;;;19.83;11.73;;;;;;;1.14;81.63;101448.63;5012180;28;20049;-83
2021/10/11 02:18:57;;;;;;;18.63;12.70;;;;;;;1.16;82.12;101443.50;5015158;28;20147;-81
2021/10/11 02:21:23;;;;;;;19.30;12.27;;;;;;;1.19;81.73;101436.72;5013245;28;20045;-83
2021/10/11 02:23:48;;;;;;;17.90;11.73;;;;;;;1.21;82.19;101435.09;5014534;28;20046;-83
2021/10/11 02:26:13;;;;;;;22.48;13.18;;;;;;;1.25;82.03;101437.00;5014992;28;20042;-82
2021/10/11 02:28:39;;;;;;;22.10;12.17;;;;;;;1.25;81.20;101430.91;5013642;28;20045;-83
2021/10/11 02:31:04;;;;;;;22.70;13.47;;;;;;;1.25;81.18;101423.09;5015688;28;20424;-82
2021/10/11 02:33:29;;;;;;;23.07;13.70;;;;;;;1.20;81.06;101428.09;5012867;28;20637;-83
2021/10/11 02:35:55;;;;;;;26.42;15.23;;;;;;;1.19;81.67;101426.31;5015311;28;20044;-84
2021/10/11 02:38:20;;;;;;;22.83;12.80;;;;;;;1.18;81.22;101416.75;5015105;28;20042;-83
2021/10/11 02:40:45;;;;;;;19.92;11.68;;;;;;;1.17;81.11;101417.56;5017327;28;20045;-82
2021/10/11 02:43:11;;;;;;;25.48;13.40;;;;;;;1.19;81.40;101417.63;5009149;28;20034;-81
2021/10/11 02:45:36;;;;;;;22.75;12.68;;;;;;;1.23;81.22;101416.94;5027374;28;20053;-81
2021/10/11 02:48:05;;;;;;;21.50;13.38;;;;;;;1.26;80.98;101412.78;5015338;28;20033;-83
2021/10/11 02:50:30;;;;;;;20.98;12.98;;;;;;;1.28;82.14;101400.75;5012997;28;20041;-82
2021/10/11 02:52:56;;;;;;;17.33;12.07;;;;;;;1.33;81.57;101394.84;5008497;28;20042;-80
2021/10/11 02:55:24;;;;;;;25.20;13.82;;;;;;;1.38;81.14;101388.16;5008851;28;20113;-80
2021/10/11 02:57:50;;;;;;;20.40;12.77;;;;;;;1.43;81.33;101389.25;5007521;28;20064;-80
2021/10/11 03:00:15;;;;;;;21.35;12.68;;;;;;;1.50;82.08;101381.78;5007829;28;20101;-81
2021/10/11 03:02:40;;;;;;;17.80;11.00;;;;;;;1.53;80.74;101381.03;5014353;28;20550;-81
2021/10/11 03:05:06;;;;;;;19.40;11.80;;;;;;;1.53;81.60;101378.41;5007492;28;20551;-81
2021/10/11 03:07:31;;;;;;;21.13;12.55;;;;;;;1.57;81.11;101377.72;5023574;28;20042;-81
2021/10/11 03:09:57;;;;;;;17.90;11.18;;;;;;;1.58;80.64;101369.09;5007432;28;20057;-81
2021/10/11 03:12:22;;;;;;;22.90;12.77;;;;;;;1.54;80.40;101370.66;5014167;28;20038;-80
2021/10/11 03:14:47;;;;;;;18.65;12.13;;;;;;;1.55;80.50;101371.59;5009523;28;20034;-80
2021/10/11 03:17:13;;;;;;;16.63;10.95;;;;;;;1.51;80.32;101378.34;5010088;28;20072;-81
2021/10/11 03:19:38;;;;;;;17.33;10.95;;;;;;;1.51;79.72;101372.25;5027458;28;20053;-80
2021/10/11 03:22:03;;;;;;;19.95;12.15;;;;;;;1.54;79.62;101357.66;5013463;28;20036;-80
2021/10/11 03:24:29;;;;;;;21.50;12.15;;;;;;;1.58;80.06;101356.09;5011721;28;20151;-80
2021/10/11 03:26:54;;;;;;;18.73;12.60;;;;;;;1.64;79.80;101347.66;5013171;28;20121;-82
2021/10/11 03:29:20;;;;;;;20.73;12.43;;;;;;;1.69;79.55;101343.53;5026974;28;20069;-81
2021/10/11 03:31:45;;;;;;;16.75;11.55;;;;;;;1.73;79.78;101342.88;5011996;28;20040;-80
2021/10/11 03:34:12;;;;;;;18.90;10.82;;;;;;;1.77;78.73;101351.69;5004332;28;20042;-80
2021/10/11 03:36:40;;;;;;;18.38;11.35;;;;;;;1.71;79.16;101350.59;5007990;28;20492;-79
2021/10/11 03:39:06;;;;;;;19.38;11.68;;;;;;;1.73;78.96;101354.16;5017289;28;20029;-79
2021/10/11 03:41:33;;;;;;;18.25;12.82;;;;;;;1.70;78.68;101347.91;5026661;28;20128;-80
2021/10/11 03:43:59;;;;;;;19.67;11.70;;;;;;;1.66;79.52;101341.69;5026573;28;20507;-81
2021/10/11 03:46:24;;;;;;;18.58;11.73;;;;;;;1.73;79.74;101332.47;5016340;28;20038;-81
2021/10/11 03:48:50;;;;;;;17.70;12.25;;;;;;;1.81;79.01;101325.84;5010294;28;20038;-79
2021/10/11 03:51:15;;;;;;;20.10;10.98;;;;;;;1.88;78.88;101325.25;5011201;28;20038;-79
2021/10/11 03:53:40;;;;;;;17.88;11.05;;;;;;;1.92;79.00;101323.69;5016117;28;20048;-80
2021/10/11 03:56:06;;;;;;;19.45;10.82;;;;;;;1.88;78.62;101322.66;5016466;28;20034;-79
2021/10/11 03:58:31;;;;;;;17.77;11.43;;;;;;;1.88;78.61;101320.06;5014543;28;20092;-80
2021/10/11 04:00:56;;;;;;;19.15;11.55;;;;;;;1.84;78.36;101314.69;5012136;28;20030;-81
2021/10/11 04:03:22;;;;;;;22.35;11.68;;;;;;;1.85;78.51;101317.34;5016622;28;20026;-80
2021/10/11 04:05:47;;;;;;;15.70;10.68;;;;;;;1.82;78.18;101314.59;5013135;28;20478;-81
2021/10/11 04:08:14;;;;;;;21.15;11.63;;;;;;;1.84;78.01;101314.69;5024107;28;20030;-79
2021/10/11 04:10:57;;;;;;;22.63;13.02;;;;;;;1.84;78.83;101317.28;5027029;28;20043;-78
2021/10/11 04:13:22;;;;;;;19.55;11.10;;;;;;;1.86;79.07;101320.81;5012556;28;20076;-80
2021/10/11 04:15:48;;;;;;;19.00;11.95;;;;;;;1.87;78.37;101333.03;5014164;28;20031;-80
2021/10/11 04:18:17;;;;;;;18.83;11.38;;;;;;;1.85;79.18;101342.47;5012891;28;20053;-79
2021/10/11 04:20:44;;;;;;;17.48;11.38;;;;;;;1.77;79.44;101336.94;5010394;28;20035;-80
2021/10/11 04:23:09;;;;;;;15.85;11.25;;;;;;;1.84;79.68;101341.59;5012291;28;20056;-80
2021/10/11 04:25:35;;;;;;;22.05;12.40;;;;;;;1.97;80.49;101346.50;5024731;28;20488;-78
2021/10/11 04:28:00;;;;;;;18.27;10.43;;;;;;;2.12;80.56;101343.66;5011634;28;20100;-81
2021/10/11 04:30:25;;;;;;;18.42;11.75;;;;;;;2.13;80.37;101332.38;5007513;28;20126;-80
2021/10/11 04:32:51;;;;;;;22.48;11.88;;;;;;;2.19;80.05;101340.44;5007256;28;20129;-80
2021/10/11 04:35:16;;;;;;;18.52;10.20;;;;;;;2.21;79.73;101340.50;5008880;28;20061;-79
2021/10/11 04:37:42;;;;;;;17.55;11.05;;;;;;;2.28;80.26;101328.59;5005565;28;20029;-80
2021/10/11 04:40:08;;;;;;;18.17;11.57;;;;;;;2.41;80.66;101323.06;5018349;28;20532;-80
2021/10/11 04:42:34;;;;;;;16.13;10.75;;;;;;;2.53;80.04;101323.56;5006931;28;20042;-80
2021/10/11 04:44:59;;;;;;;18.85;12.15;;;;;;;2.65;80.10;101325.75;5004227;28;20114;-79
2021/10/11 04:47:24;;;;;;;18.23;11.77;;;;;;;2.77;79.61;101314.91;5011588;28;20501;-79
2021/10/11 04:49:50;;;;;;;17.23;11.35;;;;;;;2.90;79.78;101316.25;5010421;28;20477;-80
2021/10/11 04:52:15;;;;;;;18.13;11.07;;;;;;;2.97;79.33;101316.53;5014090;28;20034;-79
2021/10/11 04:54:40;;;;;;;19.25;11.90;;;;;;;2.98;80.47;101310.47;5007341;28;20108;-79
2021/10/11 04:57:05;;;;;;;19.42;12.05;;;;;;;3.02;80.62;101322.81;5026811;28;20415;-81
2021/10/11 04:59:31;;;;;;;17.08;11.05;;;;;;;3.00;80.12;101326.19;5004142;28;20504;-80
2021/10/11 05:01:56;;;;;;;16.08;10.93;;;;;;;3.04;79.80;101328.09;5005643;28;20046;-80
2021/10/11 05:04:22;;;;;;;17.92;10.85;;;;;;;3.05;79.12;101322.94;5001958;28;20030;-79
2021/10/11 05:06:47;;;;;;;18.20;11.82;;;;;;;3.12;78.97;101323.13;5008062;28;20437;-79
2021/10/11 05:09:12;;;;;;;14.68;10.00;;;;;;;3.15;78.94;101326.78;5004880;28;20476;-81
2021/10/11 05:11:38;;;;;;;18.45;11.45;;;;;;;3.08;78.82;101333.47;5010129;28;20061;-81
2021/10/11 05:14:03;;;;;;;18.58;11.20;;;;;;;3.07;79.10;101336.91;5011077;28;20056;-81
2021/10/11 05:16:28;;;;;;;14.93;10.48;;;;;;;3.03;79.33;101337.63;5011385;28;20415;-80
2021/10/11 05:18:54;;;;;;;21.55;13.73;;;;;;;3.07;80.12;101336.03;5011972;28;20496;-81
2021/10/11 05:21:21;;;;;;;22.75;14.07;;;;;;;3.16;79.44;101338.09;5009718;28;20038;-80
2021/10/11 05:23:46;;;;;;;19.83;11.90;;;;;;;3.26;79.54;101335.88;5006842;28;20046;-80
2021/10/11 05:26:11;;;;;;;17.63;11.68;;;;;;;3.36;79.02;101334.47;5006714;28;20041;-80
2021/10/11 05:28:37;;;;;;;17.42;11.88;;;;;;;3.44;78.96;101329.53;5009659;28;20038;-79
2021/10/11 05:31:02;;;;;;;16.95;10.73;;;;;;;3.50;78.20;101338.47;5001562;28;20038;-80
2021/10/11 05:33:28;;;;;;;17.08;11.55;;;;;;;3.55;79.03;101332.53;5012925;28;20057;-80
2021/10/11 05:35:53;;;;;;;16.55;11.27;;;;;;;3.61;78.62;101331.00;5012009;28;20076;-80
2021/10/11 05:38:19;;;;;;;16.88;9.93;;;;;;;3.70;78.56;101331.34;5010270;28;20034;-81
2021/10/11 05:40:45;;;;;;;17.83;11.50;;;;;;;3.80;78.36;101335.16;4991239;28;20443;-79
2021/10/11 05:43:11;;;;;;;16.08;10.30;;;;;;;3.86;78.17;101339.69;5009540;28;20046;-80
2021/10/11 05:45:36;;;;;;;25.90;12.40;;;;;;;3.94;77.81;101331.28;5010820;28;20117;-79
2021/10/11 05:48:01;;;;;;;14.95;10.32;;;;;;;3.98;78.00;101336.59;5007567;28;20127;-79
2021/10/11 05:50:27;;;;;;;17.42;11.18;;;;;;;4.07;77.51;101347.38;5007330;28;20070;-80
2021/10/11 05:52:52;;;;;;;17.33;9.68;;;;;;;4.14;77.67;101342.41;5007595;28;20089;-80
2021/10/11 05:55:17;;;;;;;19.27;12.65;;;;;;;4.12;77.25;101341.47;5015988;28;20030;-80
2021/10/11 05:57:43;;;;;;;17.70;11.63;;;;;;;4.10;77.08;101342.25;5006581;28;20077;-80
2021/10/11 06:00:10;;;;;;;18.90;11.25;;;;;;;4.13;77.38;101338.00;5005551;28;20728;-79
2021/10/11 06:02:35;;;;;;;17.33;11.80;;;;;;;4.14;77.93;101334.56;5024077;28;20033;-80
2021/10/11 06:05:01;;;;;;;17.90;11.20;;;;;;;4.22;78.07;101332.19;5008954;28;20038;-79
2021/10/11 06:07:27;;;;;;;19.70;13.63;;;;;;;4.20;78.33;101318.19;4987567;28;20038;-79
2021/10/11 06:09:52;;;;;;;23.77;11.30;;;;;;;4.26;78.42;101323.59;5008523;28;20107;-80
2021/10/11 06:12:18;;;;;;;16.15;11.63;;;;;;;4.39;77.99;101325.78;5006377;28;20053;-79
2021/10/11 06:14:43;;;;;;;14.05;9.68;;;;;;;4.46;77.41;101329.47;5007350;28;20050;-80
2021/10/11 06:17:08;;;;;;;15.60;10.38;;;;;;;4.46;78.08;101331.22;5006544;28;20040;-80
2021/10/11 06:19:33;;;;;;;14.43;10.02;;;;;;;4.62;78.14;101333.47;5006923;28;20030;-80
2021/10/11 06:21:59;;;;;;;16.83;10.55;;;;;;;4.70;78.12;101321.50;5006980;28;20038;-79
2021/10/11 06:24:24;;;;;;;19.88;10.73;;;;;;;4.74;78.24;101333.84;5006140;28;20041;-80
2021/10/11 06:26:50;;;;;;;17.52;9.90;;;;;;;4.78;78.30;101320.00;5006597;28;20080;-80
2021/10/11 06:29:15;;;;;;;14.50;9.77;;;;;;;4.89;78.26;101317.69;5005238;28;20046;-79
2021/10/11 06:31:40;;;;;;;22.15;11.57;;;;;;;4.96;77.87;101311.81;5008500;28;20034;-80
2021/10/11 06:34:06;;;;;;;18.33;10.25;;;;;;;5.05;77.39;101326.88;5004369;28;20092;-81
2021/10/11 06:36:35;;;;;;;16.73;10.95;;;;;;;5.14;77.60;101329.78;5007819;28;20125;-80
2021/10/11 06:39:03;;;;;;;19.67;11.27;;;;;;;5.25;77.21;101332.69;5004120;28;20041;-80
2021/10/11 06:41:29;;;;;;;17.83;10.27;;;;;;;5.40;76.60;101335.75;5007437;28;20033;-80
2021/10/11 06:43:54;;;;;;;19.45;11.57;;;;;;;5.57;76.41;101341.44;5004232;28;20511;-80
2021/10/11 06:46:20;;;;;;;17.42;11.40;;;;;;;5.73;76.21;101342.72;5007239;28;20038;-80
2021/10/11 06:48:45;;;;;;;19.15;11.15;;;;;;;5.81;76.17;101340.31;5005210;28;20069;-80
2021/10/11 06:51:10;;;;;;;17.83;11.77;;;;;;;5.89;75.67;101334.44;5005916;28;20038;-79
2021/10/11 06:53:36;;;;;;;16.98;10.73;;;;;;;5.99;75.63;101335.56;4988039;28;20068;-80
2021/10/11 06:56:03;;;;;;;17.58;10.30;;;;;;;6.10;74.89;101334.13;5005559;28;20030;-79
2021/10/11 06:58:29;;;;;;;17.98;11.45;;;;;;;6.19;75.25;101332.59;5005265;28;20129;-80
2021/10/11 07:00:54;;;;;;;18.33;12.27;;;;;;;6.28;74.94;101332.78;5006163;28;20058;-80
2021/10/11 07:03:24;;;;;;;16.73;9.88;;;;;;;6.30;75.17;101331.09;5010157;28;20035;-80
2021/10/11 07:05:50;;;;;;;15.60;9.77;;;;;;;6.42;74.56;101338.34;5007901;28;20076;-80
2021/10/11 07:08:16;;;;;;;21.08;11.63;;;;;;;6.51;74.68;101334.22;5004816;28;20042;-80
2021/10/11 07:10:41;;;;;;;20.27;11.80;;;;;;;6.66;74.67;101330.19;5008376;28;20089;-80
2021/10/11 07:13:07;;;;;;;16.38;10.07;;;;;;;6.83;74.08;101325.31;5004541;28;20042;-80
2021/10/11 07:15:33;;;;;;;18.88;11.00;;;;;;;6.93;73.93;101328.16;5024028;28;20084;-80
2021/10/11 07:17:59;;;;;;;15.25;9.73;;;;;;;7.02;73.68;101320.50;5015167;28;20053;-81
2021/10/11 07:20:24;;;;;;;16.35;10.20;;;;;;;7.11;73.98;101318.91;5020865;28;20030;-80
2021/10/11 07:22:49;;;;;;;18.45;11.18;;;;;;;7.18;73.74;101329.56;5007922;28;20037;-79
2021/10/11 07:25:15;;;;;;;15.02;9.82;;;;;;;7.31;73.37;101322.84;5007181;28;20096;-80
2021/10/11 07:27:40;;;;;;;14.57;9.10;;;;;;;7.44;73.36;101327.47;5022710;28;20026;-80
2021/10/11 07:30:06;;;;;;;15.35;10.10;;;;;;;7.50;72.92;101320.56;5007020;28;20117;-80
2021/10/11 07:32:32;;;;;;;15.35;9.70;;;;;;;7.63;72.94;101314.69;5005011;28;20462;-79
2021/10/11 07:34:59;;;;;;;14.95;9.45;;;;;;;7.76;72.42;101315.78;5008185;28;20041;-79
2021/10/11 07:37:24;;;;;;;12.80;9.45;;;;;;;7.92;72.54;101314.31;5009695;28;20044;-80
2021/10/11 07:39:49;;;;;;;15.52;9.52;;;;;;;8.07;72.44;101318.09;5008201;28;20116;-79
2021/10/11 07:42:15;;;;;;;12.77;8.80;;;;;;;8.23;72.18;101329.75;5005138;28;20066;-79
2021/10/11 07:44:40;;;;;;;13.88;9.80;;;;;;;8.34;72.46;101328.16;5008002;28;20072;-80
2021/10/11 07:47:05;;;;;;;14.65;9.07;;;;;;;8.46;71.70;101326.59;5004949;28;20042;-82
2021/10/11 07:49:31;;;;;;;13.32;9.38;;;;;;;8.58;71.46;101332.06;5011111;28;20042;-80
2021/10/11 07:51:56;;;;;;;15.00;9.73;;;;;;;8.59;71.41;101322.41;5011522;28;20038;-80
2021/10/11 07:54:22;;;;;;;17.55;10.43;;;;;;;8.61;71.12;101316.31;5011461;28;20057;-80
2021/10/11 07:56:48;;;;;;;14.80;9.80;;;;;;;8.76;70.65;101321.78;5011697;28;20034;-81
2021/10/11 07:59:14;;;;;;;16.77;10.95;;;;;;;8.77;71.11;101322.66;5011375;28;20083;-79
2021/10/11 08:01:39;;;;;;;16.90;10.55;;;;;;;8.93;71.05;101313.22;5013539;28;20121;-82
2021/10/11 08:04:05;;;;;;;15.63;9.80;;;;;;;9.05;70.65;101321.28;5017279;28;20041;-81
2021/10/11 08:06:32;;;;;;;15.10;10.18;;;;;;;9.11;70.13;101321.38;5012276;28;20054;-81
2021/10/11 08:08:58;;;;;;;15.23;9.90;;;;;;;9.10;69.89;101324.00;5007912;28;20136;-81
2021/10/11 08:11:23;;;;;;;16.27;9.60;;;;;;;9.15;69.83;101328.44;5005486;28;20054;-81
2021/10/11 08:13:49;;;;;;;15.85;9.93;;;;;;;9.21;70.00;101332.91;5012379;28;20412;-80
2021/10/11 08:16:14;;;;;;;16.05;10.35;;;;;;;9.19;70.60;101332.88;5008340;28;20049;-81
2021/10/11 08:18:39;;;;;;;15.05;10.20;;;;;;;9.18;69.67;101320.59;5008440;28;20106;-80
2021/10/11 08:21:05;;;;;;;14.45;9.45;;;;;;;9.25;69.76;101333.81;5005681;28;20050;-80
2021/10/11 08:23:35;;;;;;;15.50;10.02;;;;;;;9.26;70.12;101333.84;5007449;28;20084;-80
2021/10/11 08:26:01;;;;;;;15.30;9.93;;;;;;;9.43;69.76;101336.66;5006926;28;20030;-80
2021/10/11 08:28:26;;;;;;;13.82;9.40;;;;;;;9.41;69.75;101334.03;5007629;28;20189;-81
2021/10/11 08:30:53;;;;;;;15.15;10.35;;;;;;;9.47;69.98;101322.66;5006273;28;20121;-81
2021/10/11 08:33:19;;;;;;;13.23;9.40;;;;;;;9.61;70.44;101313.16;5022606;28;20062;-81
2021/10/11 08:35:44;;;;;;;14.52;9.60;;;;;;;9.71;69.96;101316.75;5007130;28;20034;-79
2021/10/11 08:38:10;;;;;;;14.98;10.20;;;;;;;9.86;68.74;101316.03;5006621;28;20405;-81
2021/10/11 08:40:36;;;;;;;14.77;10.18;;;;;;;9.97;68.97;101309.09;5007718;28;20030;-81
2021/10/11 08:43:01;;;;;;;15.60;10.60;;;;;;;10.07;68.83;101304.78;5001521;28;20046;-81
2021/10/11 08:45:26;;;;;;;14.35;10.93;;;;;;;10.20;68.63;101309.28;5008659;28;20116;-81
2021/10/11 08:47:52;;;;;;;14.18;9.43;;;;;;;10.39;68.96;101312.97;5012116;28;20033;-81
2021/10/11 08:50:17;;;;;;;17.45;10.40;;;;;;;10.58;67.62;101305.19;5009184;28;20089;-81
2021/10/11 08:52:43;;;;;;;14.90;9.70;;;;;;;10.71;66.74;101313.19;5011841;28;20050;-81
2021/10/11 08:55:09;;;;;;;15.02;11.15;;;;;;;10.80;66.96;101304.44;5024184;28;20046;-81
2021/10/11 08:57:34;;;;;;;12.32;9.60;;;;;;;10.91;66.78;101300.09;5011187;28;20046;-81
2021/10/11 09:00:16;;;;;;;15.27;10.15;;;;;;;10.98;66.37;101298.38;5009519;28;20107;-81
2021/10/11 09:02:51;;;;;;;14.45;9.98;;;;;;;11.07;65.84;101297.53;5008088;28;20027;-79
2021/10/11 09:05:24;;;;;;;14.63;11.02;;;;;;;11.17;66.00;101301.97;5026353;28;20049;-81
2021/10/11 09:07:58;;;;;;;14.60;10.80;;;;;;;11.43;65.22;101295.88;5025773;28;20422;-80
2021/10/11 09:10:24;;;;;;;15.73;10.90;;;;;;;11.61;63.95;101302.09;5008752;28;20401;-80
2021/10/11 09:12:49;;;;;;;22.25;13.90;;;;;;;11.90;65.12;101303.06;5011924;28;20033;-81
2021/10/11 09:15:14;;;;;;;15.77;10.98;;;;;;;12.17;62.93;101305.69;5010104;28;20026;-81
2021/10/11 09:17:44;;;;;;;15.63;10.77;;;;;;;12.17;63.08;101296.88;5009230;28;20459;-81
2021/10/11 09:20:15;;;;;;;17.48;11.45;;;;;;;12.31;62.52;101296.84;5009793;28;20033;-81
2021/10/11 09:22:42;;;;;;;17.90;11.27;;;;;;;12.32;62.77;101291.56;5015757;28;20038;-81
2021/10/11 09:25:09;;;;;;;17.95;12.48;;;;;;;12.52;62.74;101299.47;5008622;28;20436;-81
2021/10/11 09:27:46;;;;;;;16.80;11.95;;;;;;;12.67;62.09;101302.09;5008147;28;20042;-82
2021/10/11 09:30:14;;;;;;;16.45;12.63;;;;;;;12.84;61.47;101296.75;5006026;28;20581;-81
2021/10/11 09:32:39;;;;;;;16.15;11.90;;;;;;;13.00;60.69;101294.94;5008463;28;20091;-81
2021/10/11 09:35:19;;;;;;;17.98;13.20;;;;;;;13.06;60.41;101299.31;5006718;28;20485;-81
2021/10/11 09:37:50;;;;;;;22.10;13.55;;;;;;;12.91;61.65;101287.00;5009383;28;20037;-82
2021/10/11 09:40:16;;;;;;;24.42;14.02;;;;;;;13.03;60.63;101292.25;5022034;28;20374;-81
2021/10/11 09:42:42;;;;;;;19.27;14.23;;;;;;;12.98;61.22;101283.44;5008823;28;20029;-82
2021/10/11 09:45:08;;;;;;;21.38;15.45;;;;;;;12.95;61.82;101283.47;5006175;28;20386;-82
2021/10/11 09:47:37;;;;;;;19.20;14.32;;;;;;;13.04;61.52;101283.41;5024874;28;20424;-81
2021/10/11 09:50:06;;;;;;;20.25;15.38;;;;;;;13.08;61.46;101290.47;5018255;28;20038;-82
2021/10/11 09:52:31;;;;;;;25.05;17.10;;;;;;;12.91;61.53;101289.66;5005994;28;20039;-82
2021/10/11 09:54:57;;;;;;;24.85;16.42;;;;;;;12.71;62.09;101290.59;5009970;28;20622;-82
2021/10/11 09:57:23;;;;;;;26.23;17.67;;;;;;;12.56;62.25;101292.41;5009277;28;20038;-81
2021/10/11 09:59:49;;;;;;;25.88;17.85;;;;;;;12.50;63.43;101295.97;5008812;28;20117;-81
2021/10/11 10:02:17;;;;;;;25.15;15.88;;;;;;;12.39;63.03;101297.72;5026561;28;20053;-81
2021/10/11 10:04:44;;;;;;;23.02;15.13;;;;;;;12.10;63.90;101306.56;5017959;28;20041;-80
2021/10/11 10:07:13;;;;;;;21.40;17.05;;;;;;;12.02;64.25;101303.03;5013223;28;20038;-80
2021/10/11 10:09:45;;;;;;;23.10;16.27;;;;;;;11.97;65.30;101299.50;5015744;28;20041;-81
2021/10/11 10:12:11;;;;;;;;;;;;;;;12.01;65.23;101290.69;5011701;28;20439;-80
2021/10/11 10:14:37;;;;;;;23.10;16.58;;;;;;;11.92;65.89;101294.25;5027631;28;19984;-81
2021/10/11 10:17:02;;;;;;;23.83;15.50;;;;;;;11.77;66.23;101292.41;5026228;28;20066;-80
2021/10/11 10:19:40;;;;;;;26.25;16.63;;;;;;;11.57;67.37;101295.03;5028433;28;20033;-81
2021/10/11 10:22:11;;;;;;;23.27;16.38;;;;;;;11.44;69.23;101282.66;5009843;28;20489;-80
2021/10/11 10:24:37;;;;;;;25.73;17.42;;;;;;;11.37;69.47;101292.34;5008665;28;20387;-81
2021/10/11 10:27:05;;;;;;;23.40;17.17;;;;;;;11.35;69.89;101287.94;5016251;28;20034;-81
2021/10/11 10:29:46;;;;;;;24.27;17.30;;;;;;;11.40;70.90;101279.13;5004638;28;20392;-81
2021/10/11 10:32:15;;;;;;;24.40;17.33;;;;;;;11.47;70.63;101281.78;5006567;28;20053;-81
2021/10/11 10:34:41;;;;;;;22.35;16.60;;;;;;;11.45;70.84;101283.53;5019691;28;20040;-81
2021/10/11 10:37:11;;;;;;;24.60;16.63;;;;;;;11.40;72.48;101278.25;5023761;28;20568;-80
2021/10/11 10:39:43;;;;;;;24.92;18.80;;;;;;;11.19;72.25;101284.38;5007707;28;20046;-80
2021/10/11 10:42:20;;;;;;;25.73;17.60;;;;;;;10.90;74.00;101285.13;5025690;28;20092;-80
2021/10/11 10:44:46;;;;;;;24.27;17.80;;;;;;;10.69;76.22;101285.03;5008698;28;20034;-80
2021/10/11 10:47:12;;;;;;;28.33;18.58;;;;;;;10.61;76.86;101284.09;5009740;28;20060;-80
2021/10/11 10:49:38;;;;;;;27.58;19.02;;;;;;;10.55;78.44;101297.25;5011987;28;20124;-81
2021/10/11 10:52:19;;;;;;;27.38;20.63;;;;;;;10.40;79.22;101293.66;5021647;28;20106;-81
2021/10/11 10:54:47;;;;;;;28.77;20.35;;;;;;;10.22;81.63;101304.94;5019772;28;20038;-81
2021/10/11 10:57:18;;;;;;;31.60;22.80;;;;;;;10.07;83.25;101300.41;5005458;28;20049;-81
2021/10/11 11:00:00;;;;;;;34.90;24.33;;;;;;;9.90;84.85;101294.09;5006106;28;20034;-80
2021/10/11 11:02:26;;;;;;;36.70;25.23;;;;;;;9.95;84.57;101281.81;5023312;28;20072;-81
2021/10/11 11:04:56;;;;;;;30.95;22.42;;;;;;;9.96;84.98;101291.53;5028598;28;20500;-81
2021/10/11 11:07:31;;;;;;;35.95;24.88;;;;;;;9.85;86.33;101287.88;5008833;28;20034;-81
2021/10/11 11:09:58;;;;;;;39.75;25.15;;;;;;;9.81;85.81;101294.91;5012683;28;20393;-81
2021/10/11 11:12:34;;;;;;;32.92;24.35;;;;;;;9.64;87.01;101289.47;5025282;28;20046;-82